createdAt,value
2022-10-15T00:00:06.063Z,97555.22
2022-10-15T00:02:32.839Z,97547.50
2022-10-15T00:04:59.361Z,97546.09
2022-10-15T00:07:26.695Z,97546.00
2022-10-15T00:09:53.394Z,97545.19
2022-10-15T00:12:20.246Z,97541.38
2022-10-15T00:14:46.902Z,97539.06
2022-10-15T00:17:13.530Z,97543.13
2022-10-15T00:19:40.015Z,97537.81
2022-10-15T00:22:07.066Z,97540.00
2022-10-15T00:24:33.582Z,97537.91
2022-10-15T00:27:00.144Z,97532.03
2022-10-15T00:29:26.702Z,97540.69
2022-10-15T00:31:54.670Z,97533.41
2022-10-15T00:34:21.394Z,97535.03
2022-10-15T00:36:50.628Z,97531.69
2022-10-15T00:39:17.219Z,97528.00
2022-10-15T00:41:45.242Z,97535.03
2022-10-15T00:44:37.999Z,97537.56
2022-10-15T00:47:04.643Z,97533.28
2022-10-15T00:49:35.467Z,97535.94
2022-10-15T00:52:10.667Z,97531.44
2022-10-15T00:54:42.224Z,97485.53
2022-10-15T00:57:11.411Z,97530.16
2022-10-15T00:59:43.828Z,97525.44
2022-10-15T01:02:11.322Z,97519.31
2022-10-15T01:04:38.332Z,97521.50
2022-10-15T01:07:05.063Z,97516.56
2022-10-15T01:09:31.780Z,97517.94
2022-10-15T01:11:58.707Z,97519.53
2022-10-15T01:14:43.274Z,97515.84
2022-10-15T01:17:30.014Z,97521.97
2022-10-15T01:20:33.999Z,97522.22
2022-10-15T01:23:21.289Z,97525.69
2022-10-15T01:25:56.487Z,97515.06
2022-10-15T01:28:32.892Z,97513.94
2022-10-15T01:31:03.762Z,97510.72
2022-10-15T01:33:56.746Z,97499.63
2022-10-15T01:36:37.080Z,97500.41
2022-10-15T01:39:23.302Z,97499.28
2022-10-15T01:41:56.015Z,97500.78
2022-10-15T01:44:30.288Z,97493.50
2022-10-15T01:48:03.499Z,97498.84
2022-10-15T01:50:34.313Z,97488.09
2022-10-15T01:53:04.200Z,97481.06
2022-10-15T01:55:32.185Z,97453.38
2022-10-15T01:58:02.982Z,97468.94
2022-10-15T02:00:29.639Z,97439.66
2022-10-15T02:03:01.778Z,97465.34
2022-10-15T02:05:40.870Z,97479.06
2022-10-15T02:08:16.403Z,97468.53
2022-10-15T02:10:59.335Z,97454.56
2022-10-15T02:14:02.228Z,97457.34
2022-10-15T02:16:51.107Z,97461.44
2022-10-15T02:19:29.854Z,97460.63
2022-10-15T02:22:10.583Z,97457.63
2022-10-15T02:24:43.599Z,97451.84
2022-10-15T02:27:12.563Z,97447.44
2022-10-15T02:29:42.468Z,97451.50
2022-10-15T02:32:11.506Z,97453.56
2022-10-15T02:34:40.183Z,97456.47
2022-10-15T02:37:08.892Z,97461.44
2022-10-15T02:39:35.394Z,97457.28
2022-10-15T02:42:03.565Z,97420.81
2022-10-15T02:44:31.923Z,97454.72
2022-10-15T02:46:59.869Z,97449.41
2022-10-15T02:49:26.455Z,97451.97
2022-10-15T02:51:53.005Z,97450.00
2022-10-15T02:54:19.521Z,97448.38
2022-10-15T02:56:47.743Z,97445.16
2022-10-15T02:59:15.780Z,97441.22
2022-10-15T03:01:42.467Z,97448.63
2022-10-15T03:04:09.557Z,97443.53
2022-10-15T03:06:37.049Z,97445.63
2022-10-15T03:09:04.662Z,97453.00
2022-10-15T03:11:32.269Z,97448.03
2022-10-15T03:13:58.867Z,97439.75
2022-10-15T03:16:25.597Z,97449.19
2022-10-15T03:18:52.906Z,97445.03
2022-10-15T03:21:19.499Z,97445.03
2022-10-15T03:23:46.657Z,97439.72
2022-10-15T03:26:20.195Z,97436.25
2022-10-15T03:28:46.819Z,97438.34
2022-10-15T03:31:21.784Z,97435.81
2022-10-15T03:33:48.891Z,97445.50
2022-10-15T03:36:18.171Z,97438.69
2022-10-15T03:38:44.790Z,97440.53
2022-10-15T03:41:13.781Z,97437.75
2022-10-15T03:43:42.922Z,97435.81
2022-10-15T03:46:10.226Z,97433.41
2022-10-15T03:48:40.928Z,97432.59
2022-10-15T03:51:08.873Z,97439.84
2022-10-15T03:53:35.650Z,97433.41
2022-10-15T03:56:06.452Z,97428.44
2022-10-15T03:58:36.396Z,97433.25
2022-10-15T04:01:14.923Z,97438.56
2022-10-15T04:03:42.385Z,97438.47
2022-10-15T04:06:10.061Z,97440.22
2022-10-15T04:08:38.101Z,97436.28
2022-10-15T04:11:18.762Z,97432.25
2022-10-15T04:13:49.493Z,97436.75
2022-10-15T04:16:16.844Z,97444.50
2022-10-15T04:18:43.586Z,97435.50
2022-10-15T04:21:10.572Z,97434.22
2022-10-15T04:23:39.064Z,97440.56
2022-10-15T04:26:21.183Z,97441.03
2022-10-15T04:28:48.721Z,97446.94
2022-10-15T04:31:15.623Z,97450.25
2022-10-15T04:33:42.343Z,97451.06
2022-10-15T04:36:12.942Z,97442.19
2022-10-15T04:38:48.279Z,97453.94
2022-10-15T04:41:21.829Z,97456.59
2022-10-15T04:44:08.698Z,97460.88
2022-10-15T04:46:37.139Z,97461.00
2022-10-15T04:49:24.052Z,97460.41
2022-10-15T04:51:51.127Z,97453.81
2022-10-15T04:57:03.847Z,97457.88
2022-10-15T04:59:30.836Z,97461.78
2022-10-15T05:02:15.723Z,97469.53
2022-10-15T05:04:44.439Z,97458.69
2022-10-15T05:07:10.963Z,97463.31
2022-10-15T05:09:38.659Z,97457.75
2022-10-15T05:12:06.133Z,97463.78
2022-10-15T05:14:32.803Z,97459.94
2022-10-15T05:17:06.821Z,97460.06
2022-10-15T05:19:38.984Z,97448.41
2022-10-15T05:22:08.273Z,97452.66
2022-10-15T05:24:40.998Z,97448.97
2022-10-15T05:27:17.562Z,97441.50
2022-10-15T05:29:44.900Z,97445.03
2022-10-15T05:32:11.489Z,97441.09
2022-10-15T05:34:39.692Z,97448.84
2022-10-15T05:37:12.060Z,97459.69
2022-10-15T05:39:40.575Z,97459.59
2022-10-15T05:42:09.189Z,97473.91
2022-10-15T05:44:43.007Z,97477.50
2022-10-15T05:47:09.583Z,97476.44
2022-10-15T05:49:36.148Z,97482.00
2022-10-15T05:52:12.255Z,97487.16
2022-10-15T05:54:59.116Z,97463.66
2022-10-15T05:57:25.737Z,97488.09
2022-10-15T05:59:52.236Z,97496.75
2022-10-15T06:02:18.883Z,97498.84
2022-10-15T06:04:47.438Z,97500.09
2022-10-15T06:07:13.999Z,97504.59
2022-10-15T06:09:40.479Z,97499.53
2022-10-15T06:12:07.207Z,97495.50
2022-10-15T06:14:33.771Z,97508.19
2022-10-15T06:17:00.349Z,97507.50
2022-10-15T06:19:26.895Z,97511.66
2022-10-15T06:21:53.486Z,97500.22
2022-10-15T06:24:19.984Z,97495.63
2022-10-15T06:26:46.834Z,97507.25
2022-10-15T06:29:13.439Z,97501.38
2022-10-15T06:31:40.002Z,97508.31
2022-10-15T06:34:06.668Z,97469.09
2022-10-15T06:36:33.260Z,97507.03
2022-10-15T06:38:59.791Z,97494.91
2022-10-15T06:41:26.459Z,97504.72
2022-10-15T06:46:24.439Z,97507.94
2022-10-15T06:48:51.135Z,97511.19
2022-10-15T06:51:17.863Z,97512.69
2022-10-15T06:53:49.351Z,97508.75
2022-10-15T06:56:15.966Z,97509.00
2022-10-15T06:58:44.912Z,97523.63
2022-10-15T07:01:11.482Z,97530.09
2022-10-15T07:03:38.057Z,97532.72
2022-10-15T07:06:09.059Z,97543.81
2022-10-15T07:08:36.282Z,97542.44
2022-10-15T07:11:04.192Z,97538.84
2022-10-15T07:13:31.189Z,97562.75
2022-10-15T07:16:05.728Z,97566.91
2022-10-15T07:18:34.049Z,97529.31
2022-10-15T07:21:01.272Z,97572.22
2022-10-15T07:23:28.115Z,97576.63
2022-10-15T07:25:57.013Z,97575.09
2022-10-15T07:28:23.922Z,97572.00
2022-10-15T07:30:52.630Z,97574.19
2022-10-15T07:33:22.355Z,97583.06
2022-10-15T07:36:04.237Z,97549.16
2022-10-15T07:38:35.229Z,97585.50
2022-10-15T07:41:05.888Z,97585.03
2022-10-15T07:43:41.803Z,97582.13
2022-10-15T07:46:10.374Z,97596.22
2022-10-15T07:48:37.066Z,97594.03
2022-10-15T07:51:07.440Z,97593.81
2022-10-15T07:53:34.721Z,97591.25
2022-10-15T07:56:04.176Z,97603.75
2022-10-15T07:58:33.095Z,97602.00
2022-10-15T08:01:03.967Z,97610.75
2022-10-15T08:03:30.852Z,97604.91
2022-10-15T08:06:00.683Z,97608.69
2022-10-15T08:08:28.287Z,97605.34
2022-10-15T08:10:54.809Z,97595.19
2022-10-15T08:13:21.628Z,97603.16
2022-10-15T08:15:50.553Z,97593.91
2022-10-15T08:18:17.940Z,97604.19
2022-10-15T08:20:44.540Z,97598.41
2022-10-15T08:23:16.104Z,97589.66
2022-10-15T08:25:43.007Z,97593.91
2022-10-15T08:28:12.507Z,97607.53
2022-10-15T08:30:39.625Z,97600.97
2022-10-15T08:33:11.847Z,97620.22
2022-10-15T08:35:41.623Z,97628.53
2022-10-15T08:38:08.205Z,97633.50
2022-10-15T08:40:35.836Z,97634.22
2022-10-15T08:43:05.321Z,97638.81
2022-10-15T08:45:40.357Z,97642.16
2022-10-15T08:48:12.723Z,97644.25
2022-10-15T08:50:43.696Z,97646.31
2022-10-15T08:53:14.508Z,97643.56
2022-10-15T08:55:45.402Z,97643.47
2022-10-15T08:58:29.765Z,97650.47
2022-10-15T09:01:06.656Z,97652.53
2022-10-15T09:03:51.652Z,97644.56
2022-10-15T09:06:28.902Z,97640.88
2022-10-15T09:09:23.177Z,97649.09
2022-10-15T09:11:55.524Z,97642.31
2022-10-15T09:14:29.133Z,97649.13
2022-10-15T09:16:55.842Z,97652.69
2022-10-15T09:19:26.001Z,97659.94
2022-10-15T09:21:53.039Z,97659.84
2022-10-15T09:24:28.891Z,97651.31
2022-10-15T09:27:26.957Z,97648.56
2022-10-15T09:30:21.040Z,97642.09
2022-10-15T09:32:54.865Z,97650.44
2022-10-15T09:35:28.322Z,97648.44
2022-10-15T09:38:05.994Z,97649.81
2022-10-15T09:40:54.315Z,97647.31
2022-10-15T09:43:31.450Z,97654.88
2022-10-15T09:45:58.330Z,97655.94
2022-10-15T09:48:31.530Z,97616.19
2022-10-15T09:51:18.811Z,97661.06
2022-10-15T09:54:14.415Z,97657.16
2022-10-15T09:56:54.454Z,97656.91
2022-10-15T09:59:22.882Z,97659.22
2022-10-15T10:02:00.221Z,97646.66
2022-10-15T10:04:33.703Z,97648.25
2022-10-15T10:07:03.792Z,97611.03
2022-10-15T10:09:53.423Z,97655.56
2022-10-15T10:12:23.606Z,97655.41
2022-10-15T10:14:59.649Z,97665.81
2022-10-15T10:17:29.082Z,97662.56
2022-10-15T10:20:14.068Z,97667.25
2022-10-15T10:22:54.330Z,97667.25
2022-10-15T10:25:26.710Z,97661.75
2022-10-15T10:28:22.844Z,97656.38
2022-10-15T10:31:00.295Z,97676.84
2022-10-15T10:33:37.722Z,97664.41
2022-10-15T10:36:06.942Z,97657.16
2022-10-15T10:38:39.410Z,97657.63
2022-10-15T10:41:12.077Z,97667.44
2022-10-15T10:43:41.663Z,97666.31
2022-10-15T10:46:14.058Z,97667.25
2022-10-15T10:48:54.055Z,97658.47
2022-10-15T10:51:25.814Z,97661.16
2022-10-15T10:53:57.279Z,97657.16
2022-10-15T10:56:40.426Z,97640.63
2022-10-15T10:59:32.805Z,97663.75
2022-10-15T11:01:59.551Z,97664.06
2022-10-15T11:04:33.684Z,97668.91
2022-10-15T11:07:14.829Z,97658.06
2022-10-15T11:09:52.299Z,97665.47
2022-10-15T11:12:45.965Z,97654.63
2022-10-15T11:15:36.871Z,97655.13
2022-10-15T11:18:06.398Z,97645.81
2022-10-15T11:20:56.427Z,97650.50
2022-10-15T11:23:41.081Z,97646.00
2022-10-15T11:26:37.120Z,97643.16
2022-10-15T11:29:38.459Z,97650.84
2022-10-15T11:32:22.201Z,97647.44
2022-10-15T11:34:58.037Z,97639.31
2022-10-15T11:37:24.632Z,97634.88
2022-10-15T11:39:59.026Z,97638.31
2022-10-15T11:42:32.196Z,97619.28
2022-10-15T11:45:08.406Z,97618.09
2022-10-15T11:47:50.457Z,97627.59
2022-10-15T11:50:44.871Z,97625.22
2022-10-15T11:53:23.703Z,97623.88
2022-10-15T11:56:11.865Z,97612.09
2022-10-15T11:58:47.778Z,97619.09
2022-10-15T12:01:26.864Z,97605.84
2022-10-15T12:04:00.952Z,97603.13
2022-10-15T12:06:32.181Z,97608.75
2022-10-15T12:09:00.655Z,97611.78
2022-10-15T12:11:31.787Z,97605.00
2022-10-15T12:14:14.482Z,97610.06
2022-10-15T12:16:46.645Z,97610.00
2022-10-15T12:19:17.879Z,97597.47
2022-10-15T12:22:06.376Z,97608.47
2022-10-15T12:24:39.826Z,97605.00
2022-10-15T12:27:30.250Z,97614.22
2022-10-15T12:29:59.954Z,97611.69
2022-10-15T12:32:27.882Z,97621.16
2022-10-15T12:34:56.893Z,97603.47
2022-10-15T12:37:26.976Z,97613.06
2022-10-15T12:40:23.414Z,97612.91
2022-10-15T12:42:54.262Z,97611.03
2022-10-15T12:45:40.397Z,97623.13
2022-10-15T12:48:16.479Z,97619.66
2022-10-15T12:50:46.127Z,97600.50
2022-10-15T12:53:27.974Z,97617.63
2022-10-15T12:56:11.682Z,97614.16
2022-10-15T12:59:01.118Z,97612.72
2022-10-15T13:01:29.483Z,97610.78
2022-10-15T13:04:00.257Z,97621.63
2022-10-15T13:06:33.400Z,97614.00
2022-10-15T13:09:10.381Z,97616.88
2022-10-15T13:11:46.617Z,97603.47
2022-10-15T13:14:33.330Z,97608.25
2022-10-15T13:17:04.931Z,97615.03
2022-10-15T13:19:36.981Z,97612.59
2022-10-15T13:22:06.813Z,97611.84
2022-10-15T13:24:42.842Z,97616.28
2022-10-15T13:27:36.791Z,97611.19
2022-10-15T13:30:09.221Z,97609.94
2022-10-15T13:32:39.963Z,97605.16
2022-10-15T13:35:12.013Z,97614.00
2022-10-15T13:37:40.991Z,97604.84
2022-10-15T13:40:08.415Z,97608.69
2022-10-15T13:42:35.580Z,97607.31
2022-10-15T13:45:15.240Z,97609.09
2022-10-15T13:47:48.451Z,97594.56
2022-10-15T13:50:28.923Z,97608.19
2022-10-15T13:53:18.788Z,97608.19
2022-10-15T13:55:54.580Z,97605.72
2022-10-15T13:58:29.824Z,97600.59
2022-10-15T14:01:00.226Z,97604.78
2022-10-15T14:03:32.577Z,97601.34
2022-10-15T14:06:16.881Z,97595.56
2022-10-15T14:08:43.665Z,97602.47
2022-10-15T14:11:12.057Z,97606.53
2022-10-15T14:13:45.339Z,97607.25
2022-10-15T14:16:21.789Z,97612.00
2022-10-15T14:18:55.282Z,97602.28
2022-10-15T14:21:24.776Z,97609.09
2022-10-15T14:23:51.369Z,97617.19
2022-10-15T14:26:24.596Z,97567.22
2022-10-15T14:28:52.124Z,97614.13
2022-10-15T14:31:35.635Z,97589.03
2022-10-15T14:34:02.909Z,97617.50
2022-10-15T14:36:41.667Z,97619.13
2022-10-15T14:39:27.774Z,97615.00
2022-10-15T14:41:56.578Z,97607.50
2022-10-15T14:44:23.089Z,97618.34
2022-10-15T14:46:59.320Z,97606.06
2022-10-15T14:49:30.514Z,97609.50
2022-10-15T14:52:11.342Z,97601.72
2022-10-15T14:54:45.882Z,97599.56
2022-10-15T14:57:28.925Z,97602.59
2022-10-15T14:59:57.445Z,97599.75
2022-10-15T15:02:27.291Z,97600.81
2022-10-15T15:05:06.353Z,97605.72
2022-10-15T15:07:32.932Z,97615.31
2022-10-15T15:09:59.428Z,97608.81
2022-10-15T15:12:28.000Z,97599.28
2022-10-15T15:14:55.230Z,97596.09
2022-10-15T15:17:27.172Z,97599.25
2022-10-15T15:19:55.782Z,97605.16
2022-10-15T15:22:32.876Z,97595.84
2022-10-15T15:25:02.620Z,97597.47
2022-10-15T15:27:31.500Z,97593.59
2022-10-15T15:29:58.288Z,97598.22
2022-10-15T15:32:25.571Z,97599.25
2022-10-15T15:34:54.731Z,97594.63
2022-10-15T15:37:22.968Z,97593.47
2022-10-15T15:39:50.206Z,97574.81
2022-10-15T15:42:19.596Z,97595.84
2022-10-15T15:44:46.936Z,97588.06
2022-10-15T15:47:13.765Z,97597.19
2022-10-15T15:49:41.101Z,97609.22
2022-10-15T15:52:10.618Z,97603.34
2022-10-15T15:54:37.258Z,97598.09
2022-10-15T15:57:03.775Z,97602.16
2022-10-15T15:59:30.319Z,97611.06
2022-10-15T16:01:57.056Z,97604.06
2022-10-15T16:04:23.671Z,97611.56
2022-10-15T16:06:50.172Z,97619.78
2022-10-15T16:09:18.508Z,97616.56
2022-10-15T16:11:45.534Z,97615.25
2022-10-15T16:14:12.355Z,97611.72
2022-10-15T16:16:43.929Z,97603.19
2022-10-15T16:19:12.111Z,97608.97
2022-10-15T16:21:38.671Z,97606.69
2022-10-15T16:24:05.776Z,97626.28
2022-10-15T16:26:32.403Z,97608.63
2022-10-15T16:28:58.984Z,97624.56
2022-10-15T16:31:29.445Z,97626.91
2022-10-15T16:33:57.187Z,97637.88
2022-10-15T16:36:24.361Z,97624.25
2022-10-15T16:38:51.000Z,97647.72
2022-10-15T16:41:19.507Z,97642.72
2022-10-15T16:43:46.933Z,97652.91
2022-10-15T16:46:17.279Z,97617.72
2022-10-15T16:48:44.525Z,97644.19
2022-10-15T16:51:12.628Z,97647.91
2022-10-15T16:53:44.147Z,97650.72
2022-10-15T16:56:16.168Z,97638.38
2022-10-15T16:58:43.340Z,97656.22
2022-10-15T17:01:17.021Z,97658.81
2022-10-15T17:03:44.051Z,97615.09
2022-10-15T17:06:14.740Z,97664.34
2022-10-15T17:08:44.479Z,97666.78
2022-10-15T17:11:16.912Z,97672.59
2022-10-15T17:13:44.121Z,97638.88
2022-10-15T17:16:16.919Z,97670.81
2022-10-15T17:18:44.654Z,97640.16
2022-10-15T17:21:13.581Z,97671.97
2022-10-15T17:23:40.760Z,97683.16
2022-10-15T17:26:10.560Z,97689.81
2022-10-15T17:28:37.755Z,97701.91
2022-10-15T17:31:09.360Z,97699.41
2022-10-15T17:33:37.317Z,97700.25
2022-10-15T17:36:07.579Z,97696.13
2022-10-15T17:38:34.796Z,97696.06
2022-10-15T17:41:06.566Z,97709.22
2022-10-15T17:43:37.713Z,97698.41
2022-10-15T17:46:11.539Z,97702.25
2022-10-15T17:48:39.159Z,97697.94
2022-10-15T17:51:08.222Z,97702.34
2022-10-15T17:53:34.844Z,97713.09
2022-10-15T17:56:14.023Z,97710.41
2022-10-15T17:58:41.359Z,97679.31
2022-10-15T18:01:27.892Z,97696.47
2022-10-15T18:04:04.163Z,97720.59
2022-10-15T18:06:30.827Z,97723.22
2022-10-15T18:08:57.428Z,97724.19
2022-10-15T18:11:27.922Z,97717.91
2022-10-15T18:13:54.835Z,97714.31
2022-10-15T18:16:21.687Z,97711.75
2022-10-15T18:18:48.432Z,97723.78
2022-10-15T18:21:17.009Z,97720.84
2022-10-15T18:23:43.829Z,97722.41
2022-10-15T18:26:18.604Z,97728.06
2022-10-15T18:28:47.642Z,97720.44
2022-10-15T18:31:15.012Z,97724.31
2022-10-15T18:33:44.219Z,97719.69
2022-10-15T18:36:16.792Z,97721.66
2022-10-15T18:38:43.562Z,97721.84
2022-10-15T18:41:23.385Z,97725.34
2022-10-15T18:43:51.999Z,97739.69
2022-10-15T18:46:18.791Z,97739.78
2022-10-15T18:48:45.661Z,97733.56
2022-10-15T18:51:12.740Z,97741.88
2022-10-15T18:53:40.440Z,97749.16
2022-10-15T18:56:09.446Z,97753.66
2022-10-15T18:58:36.157Z,97761.00
2022-10-15T19:01:32.342Z,97765.97
2022-10-15T19:04:05.491Z,97758.91
2022-10-15T19:06:38.574Z,97769.16
2022-10-15T19:09:07.506Z,97759.13
2022-10-15T19:11:34.587Z,97762.47
2022-10-15T19:14:03.086Z,97771.94
2022-10-15T19:16:29.742Z,97767.91
2022-10-15T19:19:02.508Z,97764.41
2022-10-15T19:21:29.818Z,97760.94
2022-10-15T19:23:56.844Z,97761.28
2022-10-15T19:26:23.768Z,97755.34
2022-10-15T19:28:52.108Z,97773.38
2022-10-15T19:31:30.414Z,97781.22
2022-10-15T19:33:57.626Z,97756.25
2022-10-15T19:36:28.056Z,97787.34
2022-10-15T19:38:56.303Z,97793.59
2022-10-15T19:41:22.923Z,97778.44
2022-10-15T19:43:52.110Z,97790.25
2022-10-15T19:46:18.968Z,97792.75
2022-10-15T19:48:47.706Z,97782.28
2022-10-15T19:51:14.603Z,97801.22
2022-10-15T19:53:41.484Z,97807.16
2022-10-15T19:56:11.124Z,97801.91
2022-10-15T19:58:38.498Z,97808.56
2022-10-15T20:01:05.320Z,97812.53
2022-10-15T20:03:32.265Z,97803.19
2022-10-15T20:06:06.231Z,97797.88
2022-10-15T20:08:33.448Z,97768.91
2022-10-15T20:11:00.183Z,97799.84
2022-10-15T20:13:27.030Z,97804.47
2022-10-15T20:15:54.341Z,97802.09
2022-10-15T20:18:21.946Z,97810.97
2022-10-15T20:20:48.459Z,97813.78
2022-10-15T20:23:16.533Z,97816.31
2022-10-15T20:25:43.694Z,97814.94
2022-10-15T20:28:11.665Z,97818.69
2022-10-15T20:30:39.548Z,97827.16
2022-10-15T20:33:08.545Z,97823.88
2022-10-15T20:35:39.394Z,97822.09
2022-10-15T20:38:07.086Z,97827.81
2022-10-15T20:40:35.621Z,97825.50
2022-10-15T20:43:02.657Z,97809.69
2022-10-15T20:45:38.323Z,97822.97
2022-10-15T20:48:05.880Z,97831.44
2022-10-15T20:50:35.503Z,97838.03
2022-10-15T20:53:02.924Z,97840.56
2022-10-15T20:55:29.474Z,97846.94
2022-10-15T20:57:56.233Z,97850.88
2022-10-15T21:00:22.773Z,97851.56
2022-10-15T21:02:49.320Z,97867.31
2022-10-15T21:05:16.013Z,97868.09
2022-10-15T21:07:42.770Z,97875.38
2022-10-15T21:10:09.362Z,97880.63
2022-10-15T21:12:36.029Z,97880.69
2022-10-15T21:15:02.691Z,97881.28
2022-10-15T21:17:29.384Z,97885.78
2022-10-15T21:19:57.426Z,97899.47
2022-10-15T21:22:24.315Z,97895.41
2022-10-15T21:24:50.832Z,97883.13
2022-10-15T21:27:17.442Z,97888.69
2022-10-15T21:29:45.255Z,97853.28
2022-10-15T21:32:11.871Z,97893.53
2022-10-15T21:37:10.671Z,97887.19
2022-10-15T21:39:37.333Z,97888.34
2022-10-15T21:42:04.237Z,97891.25
2022-10-15T21:44:30.794Z,97889.28
2022-10-15T21:46:57.417Z,97894.16
2022-10-15T21:49:24.217Z,97906.03
2022-10-15T21:51:50.820Z,97909.84
2022-10-15T21:54:17.422Z,97911.84
2022-10-15T21:56:44.042Z,97908.69
2022-10-15T21:59:11.034Z,97909.63
2022-10-15T22:01:37.840Z,97897.59
2022-10-15T22:04:10.205Z,97903.38
2022-10-15T22:06:39.276Z,97895.31
2022-10-15T22:09:06.739Z,97894.69
2022-10-15T22:11:36.137Z,97901.31
2022-10-15T22:14:05.280Z,97914.97
2022-10-15T22:16:34.678Z,97910.28
2022-10-15T22:19:01.242Z,97911.22
2022-10-15T22:21:31.146Z,97884.63
2022-10-15T22:24:00.498Z,97933.91
2022-10-15T22:26:30.596Z,97935.53
2022-10-15T22:28:59.427Z,97938.16
2022-10-15T22:31:27.665Z,97932.16
2022-10-15T22:33:54.615Z,97943.84
2022-10-15T22:36:23.968Z,97929.16
2022-10-15T22:41:29.065Z,97927.75
2022-10-15T22:43:56.537Z,97938.97
2022-10-15T22:46:23.193Z,97945.81
2022-10-15T22:48:49.937Z,97944.41
2022-10-15T22:51:16.714Z,97939.69
2022-10-15T22:53:43.287Z,97946.84
2022-10-15T22:56:18.722Z,97951.97
2022-10-15T22:58:46.025Z,97949.28
2022-10-15T23:01:24.957Z,97960.00
2022-10-15T23:03:54.150Z,97948.06
2022-10-15T23:06:22.020Z,97950.31
2022-10-15T23:08:49.481Z,97949.47
2022-10-15T23:11:19.545Z,97948.81
2022-10-15T23:13:48.095Z,97939.78
2022-10-15T23:16:16.347Z,97949.94
2022-10-15T23:18:44.772Z,97954.69
2022-10-15T23:21:25.177Z,97968.56
2022-10-15T23:23:51.899Z,97936.25
2022-10-15T23:26:18.500Z,97949.22
2022-10-15T23:28:50.002Z,97964.47
2022-10-15T23:31:18.598Z,97959.75
2022-10-15T23:33:46.084Z,97972.00
2022-10-15T23:36:13.709Z,97969.94
2022-10-15T23:38:40.468Z,97967.41
2022-10-15T23:41:08.579Z,97966.34
2022-10-15T23:43:35.328Z,97960.22
2022-10-15T23:46:02.247Z,97953.28
2022-10-15T23:48:29.218Z,97945.16
2022-10-15T23:51:00.791Z,97943.56
2022-10-15T23:53:32.019Z,97944.72
2022-10-15T23:56:01.492Z,97933.63
2022-10-15T23:58:28.330Z,97930.38
